Main page
METAR-TAF:

METAR-TAF

Airports :

Geneva Airport

Geneva, Switzerland

latitude: 46-15N, longitude: 006-08E, elevation: 420 m

Current weather observation

The report was made 16 minutes ago, at 16:50 UTC
Wind 3 kt from the North
Temperature 18°C
Humidity 52%
Pressure 1016 hPa
Visibility 10 km or more
no clouds below 1500 m and no cumulonimbus

METAR: LSGG 181650Z 36003KT CAVOK 18/08 Q1016 NOSIG

Time: 19:06 (17:06 UTC)

Forecast

The report was made 2 hours and 41 minutes ago, at 14:25 UTC
Forecast valid from 18 at 15 UTC to 19 at 21 UTC
Wind 6 kt from the Northeast
Visibility 10 km or more
no clouds below 1500 m and no cumulonimbus
Probability 40% :
Temporary
from 19 at 00 UTC to 19 at 09 UTC
Visibility: 4800 m
Scattered clouds at a height of 1000 ft
mist

TAF: LSGG 181425Z 1815/1921 04006KT CAVOK TX20/1815Z TN07/1906Z TX19/1915Z PROB40 TEMPO 1900/1909 4800 BR SCT010

Weather observations and forecasts of more than 4000 airports (METAR and TAF reports).

The available stations are represented by yellow and red dots on the map.

Hover mouse over dot to see the name of the station.

Then click to see weather observations and forecasts.

To change the map : click on the green buttons with a black cross to zoom in, on the green button with a dash to zoom out, or on the green arrows for adjacent maps.


METAR-TAF: